sensor_id;sensor_type;location;lat;lon;timestamp;P1;durP1;ratioP1;P2;durP2;ratioP2
65405;SDS011;52016;51.228;-2.322;2023-02-22T00:02:30;37.42;;;24.48;;
65405;SDS011;52016;51.228;-2.322;2023-02-22T00:06:15;43.05;;;23.95;;
65405;SDS011;52016;51.228;-2.322;2023-02-22T00:09:58;35.97;;;23.23;;
65405;SDS011;52016;51.228;-2.322;2023-02-22T00:13:41;38.78;;;23.27;;
65405;SDS011;52016;51.228;-2.322;2023-02-22T00:17:25;38.75;;;23.70;;
65405;SDS011;52016;51.228;-2.322;2023-02-22T00:21:06;42.40;;;26.00;;
65405;SDS011;52016;51.228;-2.322;2023-02-22T00:24:50;40.25;;;24.30;;
65405;SDS011;52016;51.228;-2.322;2023-02-22T00:28:32;38.85;;;24.58;;
65405;SDS011;52016;51.228;-2.322;2023-02-22T00:32:14;37.90;;;24.80;;
65405;SDS011;52016;51.228;-2.322;2023-02-22T00:35:56;41.13;;;24.85;;
65405;SDS011;52016;51.228;-2.322;2023-02-22T00:39:38;35.33;;;23.85;;
65405;SDS011;52016;51.228;-2.322;2023-02-22T00:43:20;36.60;;;24.88;;
65405;SDS011;52016;51.228;-2.322;2023-02-22T00:47:02;38.20;;;25.02;;
65405;SDS011;52016;51.228;-2.322;2023-02-22T00:50:45;35.03;;;23.88;;
65405;SDS011;52016;51.228;-2.322;2023-02-22T00:54:28;34.50;;;23.05;;
65405;SDS011;52016;51.228;-2.322;2023-02-22T00:58:11;36.70;;;23.50;;
65405;SDS011;52016;51.228;-2.322;2023-02-22T01:01:52;38.38;;;24.58;;
65405;SDS011;52016;51.228;-2.322;2023-02-22T01:05:35;36.60;;;23.02;;
65405;SDS011;52016;51.228;-2.322;2023-02-22T01:09:18;21.67;;;16.88;;
65405;SDS011;52016;51.228;-2.322;2023-02-22T01:13:01;22.92;;;16.33;;
65405;SDS011;52016;51.228;-2.322;2023-02-22T01:16:49;21.02;;;14.98;;
65405;SDS011;52016;51.228;-2.322;2023-02-22T01:20:31;22.05;;;15.55;;
65405;SDS011;52016;51.228;-2.322;2023-02-22T01:24:13;22.67;;;15.95;;
65405;SDS011;52016;51.228;-2.322;2023-02-22T01:27:57;23.10;;;16.55;;
65405;SDS011;52016;51.228;-2.322;2023-02-22T01:31:40;22.15;;;15.32;;
65405;SDS011;52016;51.228;-2.322;2023-02-22T01:35:26;21.13;;;14.23;;
65405;SDS011;52016;51.228;-2.322;2023-02-22T01:39:10;20.75;;;14.13;;
65405;SDS011;52016;51.228;-2.322;2023-02-22T01:42:57;19.95;;;13.75;;
65405;SDS011;52016;51.228;-2.322;2023-02-22T01:46:41;17.60;;;13.02;;
65405;SDS011;52016;51.228;-2.322;2023-02-22T01:50:22;15.15;;;11.90;;
65405;SDS011;52016;51.228;-2.322;2023-02-22T01:54:12;17.20;;;12.10;;
65405;SDS011;52016;51.228;-2.322;2023-02-22T01:58:01;15.27;;;11.25;;
65405;SDS011;52016;51.228;-2.322;2023-02-22T02:01:45;12.13;;;9.63;;
65405;SDS011;52016;51.228;-2.322;2023-02-22T02:05:27;11.27;;;9.32;;
65405;SDS011;52016;51.228;-2.322;2023-02-22T02:09:19;12.38;;;9.07;;
65405;SDS011;52016;51.228;-2.322;2023-02-22T02:13:09;11.70;;;9.18;;
65405;SDS011;52016;51.228;-2.322;2023-02-22T02:16:51;10.15;;;8.73;;
65405;SDS011;52016;51.228;-2.322;2023-02-22T02:20:49;10.65;;;9.07;;
65405;SDS011;52016;51.228;-2.322;2023-02-22T02:29:15;16.00;;;9.63;;
65405;SDS011;52016;51.228;-2.322;2023-02-22T02:37:40;13.90;;;11.07;;
65405;SDS011;52016;51.228;-2.322;2023-02-22T02:41:38;17.10;;;10.85;;
65405;SDS011;52016;51.228;-2.322;2023-02-22T02:45:29;15.35;;;11.00;;
65405;SDS011;52016;51.228;-2.322;2023-02-22T02:53:38;10.32;;;8.73;;
65405;SDS011;52016;51.228;-2.322;2023-02-22T02:57:23;10.50;;;8.98;;
65405;SDS011;52016;51.228;-2.322;2023-02-22T03:01:04;9.85;;;8.38;;
65405;SDS011;52016;51.228;-2.322;2023-02-22T03:04:47;11.10;;;8.77;;
65405;SDS011;52016;51.228;-2.322;2023-02-22T03:08:58;11.18;;;9.23;;
65405;SDS011;52016;51.228;-2.322;2023-02-22T03:17:45;11.50;;;10.00;;
65405;SDS011;52016;51.228;-2.322;2023-02-22T03:25:34;15.73;;;12.82;;
65405;SDS011;52016;51.228;-2.322;2023-02-22T03:29:20;19.00;;;13.93;;
65405;SDS011;52016;51.228;-2.322;2023-02-22T03:33:09;19.30;;;15.77;;
65405;SDS011;52016;51.228;-2.322;2023-02-22T03:36:57;20.83;;;15.95;;
65405;SDS011;52016;51.228;-2.322;2023-02-22T03:40:43;20.75;;;15.38;;
65405;SDS011;52016;51.228;-2.322;2023-02-22T03:44:30;20.23;;;16.75;;
65405;SDS011;52016;51.228;-2.322;2023-02-22T03:52:24;22.23;;;17.08;;
65405;SDS011;52016;51.228;-2.322;2023-02-22T03:56:06;22.95;;;17.23;;
65405;SDS011;52016;51.228;-2.322;2023-02-22T03:59:50;22.98;;;16.95;;
65405;SDS011;52016;51.228;-2.322;2023-02-22T04:03:33;23.75;;;17.10;;
65405;SDS011;52016;51.228;-2.322;2023-02-22T04:07:14;24.10;;;18.45;;
65405;SDS011;52016;51.228;-2.322;2023-02-22T04:10:56;24.27;;;18.58;;
65405;SDS011;52016;51.228;-2.322;2023-02-22T04:14:38;22.40;;;18.05;;
65405;SDS011;52016;51.228;-2.322;2023-02-22T04:18:20;24.73;;;18.25;;
65405;SDS011;52016;51.228;-2.322;2023-02-22T04:22:02;26.50;;;18.85;;
65405;SDS011;52016;51.228;-2.322;2023-02-22T04:25:44;25.33;;;18.20;;
65405;SDS011;52016;51.228;-2.322;2023-02-22T04:29:25;24.92;;;17.50;;
65405;SDS011;52016;51.228;-2.322;2023-02-22T04:33:07;24.08;;;17.45;;
65405;SDS011;52016;51.228;-2.322;2023-02-22T04:36:50;21.92;;;16.83;;
65405;SDS011;52016;51.228;-2.322;2023-02-22T04:40:32;20.50;;;16.52;;
65405;SDS011;52016;51.228;-2.322;2023-02-22T04:44:14;20.88;;;15.80;;
65405;SDS011;52016;51.228;-2.322;2023-02-22T04:47:56;19.83;;;15.40;;
65405;SDS011;52016;51.228;-2.322;2023-02-22T04:51:38;21.88;;;16.05;;
65405;SDS011;52016;51.228;-2.322;2023-02-22T04:55:21;19.60;;;15.05;;
65405;SDS011;52016;51.228;-2.322;2023-02-22T04:59:03;20.40;;;15.00;;
65405;SDS011;52016;51.228;-2.322;2023-02-22T05:02:44;20.67;;;16.52;;
65405;SDS011;52016;51.228;-2.322;2023-02-22T05:06:26;20.30;;;15.43;;
65405;SDS011;52016;51.228;-2.322;2023-02-22T05:10:08;21.70;;;15.07;;
65405;SDS011;52016;51.228;-2.322;2023-02-22T05:13:51;19.55;;;14.38;;
65405;SDS011;52016;51.228;-2.322;2023-02-22T05:17:34;20.08;;;15.00;;
65405;SDS011;52016;51.228;-2.322;2023-02-22T05:21:16;18.90;;;15.18;;
65405;SDS011;52016;51.228;-2.322;2023-02-22T05:24:58;20.77;;;15.35;;
65405;SDS011;52016;51.228;-2.322;2023-02-22T05:28:40;22.98;;;16.25;;
65405;SDS011;52016;51.228;-2.322;2023-02-22T05:32:22;19.10;;;15.38;;
65405;SDS011;52016;51.228;-2.322;2023-02-22T05:36:04;20.88;;;15.93;;
65405;SDS011;52016;51.228;-2.322;2023-02-22T05:39:47;22.42;;;16.17;;
65405;SDS011;52016;51.228;-2.322;2023-02-22T05:43:31;22.05;;;16.42;;
65405;SDS011;52016;51.228;-2.322;2023-02-22T05:47:13;21.77;;;16.52;;
65405;SDS011;52016;51.228;-2.322;2023-02-22T05:50:55;23.15;;;16.40;;
65405;SDS011;52016;51.228;-2.322;2023-02-22T05:54:37;19.95;;;16.50;;
65405;SDS011;52016;51.228;-2.322;2023-02-22T05:58:19;22.70;;;16.02;;
65405;SDS011;52016;51.228;-2.322;2023-02-22T06:02:02;20.38;;;15.57;;
65405;SDS011;52016;51.228;-2.322;2023-02-22T06:05:43;18.60;;;15.38;;
65405;SDS011;52016;51.228;-2.322;2023-02-22T06:09:25;19.20;;;14.60;;
65405;SDS011;52016;51.228;-2.322;2023-02-22T06:13:07;19.75;;;15.38;;
65405;SDS011;52016;51.228;-2.322;2023-02-22T06:16:53;21.75;;;15.70;;
65405;SDS011;52016;51.228;-2.322;2023-02-22T06:20:36;21.38;;;15.50;;
65405;SDS011;52016;51.228;-2.322;2023-02-22T06:24:18;20.75;;;15.15;;
65405;SDS011;52016;51.228;-2.322;2023-02-22T06:28:01;19.52;;;14.43;;
65405;SDS011;52016;51.228;-2.322;2023-02-22T06:31:43;22.77;;;14.75;;
65405;SDS011;52016;51.228;-2.322;2023-02-22T06:35:26;18.15;;;14.27;;
65405;SDS011;52016;51.228;-2.322;2023-02-22T06:39:08;20.58;;;14.55;;
65405;SDS011;52016;51.228;-2.322;2023-02-22T06:42:52;21.75;;;14.82;;
65405;SDS011;52016;51.228;-2.322;2023-02-22T06:46:34;20.17;;;14.68;;
65405;SDS011;52016;51.228;-2.322;2023-02-22T06:50:19;19.15;;;14.48;;
65405;SDS011;52016;51.228;-2.322;2023-02-22T06:54:05;17.80;;;13.20;;
65405;SDS011;52016;51.228;-2.322;2023-02-22T06:57:47;21.48;;;14.63;;
65405;SDS011;52016;51.228;-2.322;2023-02-22T07:01:29;20.92;;;14.50;;
65405;SDS011;52016;51.228;-2.322;2023-02-22T07:05:11;22.20;;;15.00;;
65405;SDS011;52016;51.228;-2.322;2023-02-22T07:08:53;21.08;;;14.48;;
65405;SDS011;52016;51.228;-2.322;2023-02-22T07:12:35;18.95;;;13.73;;
65405;SDS011;52016;51.228;-2.322;2023-02-22T07:16:16;22.20;;;14.45;;
65405;SDS011;52016;51.228;-2.322;2023-02-22T07:19:58;20.73;;;14.52;;
65405;SDS011;52016;51.228;-2.322;2023-02-22T07:23:40;22.95;;;14.77;;
65405;SDS011;52016;51.228;-2.322;2023-02-22T07:27:22;21.17;;;14.45;;
65405;SDS011;52016;51.228;-2.322;2023-02-22T07:31:04;19.33;;;13.65;;
65405;SDS011;52016;51.228;-2.322;2023-02-22T07:34:45;19.63;;;12.82;;
65405;SDS011;52016;51.228;-2.322;2023-02-22T07:38:27;18.02;;;12.00;;
65405;SDS011;52016;51.228;-2.322;2023-02-22T07:42:09;16.45;;;12.00;;
65405;SDS011;52016;51.228;-2.322;2023-02-22T07:45:52;23.52;;;12.90;;
65405;SDS011;52016;51.228;-2.322;2023-02-22T07:49:35;17.02;;;11.90;;
65405;SDS011;52016;51.228;-2.322;2023-02-22T07:53:21;17.48;;;11.68;;
65405;SDS011;52016;51.228;-2.322;2023-02-22T07:57:05;20.55;;;13.25;;
65405;SDS011;52016;51.228;-2.322;2023-02-22T08:00:47;18.83;;;12.80;;
65405;SDS011;52016;51.228;-2.322;2023-02-22T08:04:28;16.67;;;10.65;;
65405;SDS011;52016;51.228;-2.322;2023-02-22T08:08:10;16.27;;;11.02;;
65405;SDS011;52016;51.228;-2.322;2023-02-22T08:11:52;15.88;;;10.77;;
65405;SDS011;52016;51.228;-2.322;2023-02-22T08:15:35;12.95;;;10.18;;
65405;SDS011;52016;51.228;-2.322;2023-02-22T08:19:18;15.52;;;9.90;;
65405;SDS011;52016;51.228;-2.322;2023-02-22T08:23:00;12.50;;;8.90;;
65405;SDS011;52016;51.228;-2.322;2023-02-22T08:26:45;11.20;;;8.60;;
65405;SDS011;52016;51.228;-2.322;2023-02-22T08:30:28;12.73;;;8.27;;
65405;SDS011;52016;51.228;-2.322;2023-02-22T08:34:11;10.50;;;8.18;;
65405;SDS011;52016;51.228;-2.322;2023-02-22T08:37:55;12.32;;;8.43;;
65405;SDS011;52016;51.228;-2.322;2023-02-22T08:41:39;11.77;;;8.18;;
65405;SDS011;52016;51.228;-2.322;2023-02-22T08:45:20;13.13;;;8.90;;
65405;SDS011;52016;51.228;-2.322;2023-02-22T08:49:03;13.30;;;8.18;;
65405;SDS011;52016;51.228;-2.322;2023-02-22T08:52:48;14.38;;;8.35;;
65405;SDS011;52016;51.228;-2.322;2023-02-22T08:56:34;8.75;;;7.20;;
65405;SDS011;52016;51.228;-2.322;2023-02-22T09:00:17;10.40;;;7.85;;
65405;SDS011;52016;51.228;-2.322;2023-02-22T09:04:00;9.98;;;7.22;;
65405;SDS011;52016;51.228;-2.322;2023-02-22T09:07:42;8.73;;;6.70;;
65405;SDS011;52016;51.228;-2.322;2023-02-22T09:11:25;8.18;;;5.55;;
65405;SDS011;52016;51.228;-2.322;2023-02-22T09:15:07;7.95;;;5.75;;
65405;SDS011;52016;51.228;-2.322;2023-02-22T09:18:49;6.40;;;5.15;;
65405;SDS011;52016;51.228;-2.322;2023-02-22T09:22:31;7.22;;;5.00;;
65405;SDS011;52016;51.228;-2.322;2023-02-22T09:26:13;5.68;;;4.18;;
65405;SDS011;52016;51.228;-2.322;2023-02-22T09:29:56;2.00;;;1.80;;
65405;SDS011;52016;51.228;-2.322;2023-02-22T09:33:38;1.50;;;1.40;;
65405;SDS011;52016;51.228;-2.322;2023-02-22T09:37:21;1.30;;;1.20;;
65405;SDS011;52016;51.228;-2.322;2023-02-22T09:41:15;1.48;;;1.38;;
65405;SDS011;52016;51.228;-2.322;2023-02-22T09:45:21;1.27;;;1.17;;
65405;SDS011;52016;51.228;-2.322;2023-02-22T09:53:45;1.88;;;1.13;;
65405;SDS011;52016;51.228;-2.322;2023-02-22T09:57:31;1.30;;;1.20;;
65405;SDS011;52016;51.228;-2.322;2023-02-22T10:05:13;3.42;;;1.75;;
65405;SDS011;52016;51.228;-2.322;2023-02-22T10:09:00;1.50;;;1.42;;
65405;SDS011;52016;51.228;-2.322;2023-02-22T10:25:04;1.85;;;1.17;;
65405;SDS011;52016;51.228;-2.322;2023-02-22T10:28:59;1.60;;;1.20;;
65405;SDS011;52016;51.228;-2.322;2023-02-22T10:33:38;1.20;;;1.10;;
65405;SDS011;52016;51.228;-2.322;2023-02-22T10:37:14;7.15;;;1.20;;
65405;SDS011;52016;51.228;-2.322;2023-02-22T10:44:51;1.55;;;1.00;;
65405;SDS011;52016;51.228;-2.322;2023-02-22T10:48:34;0.88;;;0.60;;
65405;SDS011;52016;51.228;-2.322;2023-02-22T10:56:17;2.70;;;1.10;;
65405;SDS011;52016;51.228;-2.322;2023-02-22T11:04:10;1.15;;;0.50;;
65405;SDS011;52016;51.228;-2.322;2023-02-22T11:08:15;0.60;;;0.60;;
65405;SDS011;52016;51.228;-2.322;2023-02-22T11:12:15;2.15;;;0.80;;
65405;SDS011;52016;51.228;-2.322;2023-02-22T11:16:01;2.13;;;0.60;;
65405;SDS011;52016;51.228;-2.322;2023-02-22T11:20:16;5.25;;;1.30;;
65405;SDS011;52016;51.228;-2.322;2023-02-22T11:27:51;7.88;;;0.90;;
65405;SDS011;52016;51.228;-2.322;2023-02-22T11:31:39;4.75;;;1.00;;
65405;SDS011;52016;51.228;-2.322;2023-02-22T11:43:05;1.33;;;0.60;;
65405;SDS011;52016;51.228;-2.322;2023-02-22T11:46:56;6.45;;;1.20;;
65405;SDS011;52016;51.228;-2.322;2023-02-22T11:50:44;2.47;;;0.80;;
65405;SDS011;52016;51.228;-2.322;2023-02-22T11:58:55;0.47;;;0.47;;
65405;SDS011;52016;51.228;-2.322;2023-02-22T12:03:11;0.98;;;0.63;;
65405;SDS011;52016;51.228;-2.322;2023-02-22T12:07:10;4.05;;;0.90;;
65405;SDS011;52016;51.228;-2.322;2023-02-22T12:15:11;2.45;;;1.20;;
65405;SDS011;52016;51.228;-2.322;2023-02-22T12:19:12;4.25;;;1.45;;
65405;SDS011;52016;51.228;-2.322;2023-02-22T12:26:59;2.42;;;0.82;;
65405;SDS011;52016;51.228;-2.322;2023-02-22T12:30:50;5.80;;;1.13;;
65405;SDS011;52016;51.228;-2.322;2023-02-22T12:34:42;1.35;;;0.95;;
65405;SDS011;52016;51.228;-2.322;2023-02-22T12:38:36;4.40;;;1.20;;
65405;SDS011;52016;51.228;-2.322;2023-02-22T12:42:27;3.58;;;2.08;;
65405;SDS011;52016;51.228;-2.322;2023-02-22T12:46:15;1.15;;;0.90;;
65405;SDS011;52016;51.228;-2.322;2023-02-22T12:50:11;1.90;;;1.02;;
65405;SDS011;52016;51.228;-2.322;2023-02-22T13:02:27;1.13;;;0.85;;
65405;SDS011;52016;51.228;-2.322;2023-02-22T13:06:16;2.17;;;1.05;;
65405;SDS011;52016;51.228;-2.322;2023-02-22T13:10:43;6.05;;;0.93;;
65405;SDS011;52016;51.228;-2.322;2023-02-22T13:18:27;44.42;;;3.60;;
65405;SDS011;52016;51.228;-2.322;2023-02-22T13:26:23;2.72;;;0.70;;
65405;SDS011;52016;51.228;-2.322;2023-02-22T13:34:23;5.55;;;0.90;;
65405;SDS011;52016;51.228;-2.322;2023-02-22T13:55:15;1.88;;;1.10;;
65405;SDS011;52016;51.228;-2.322;2023-02-22T13:59:02;2.17;;;0.80;;
65405;SDS011;52016;51.228;-2.322;2023-02-22T14:06:41;3.20;;;0.90;;
65405;SDS011;52016;51.228;-2.322;2023-02-22T14:14:23;4.55;;;1.10;;
65405;SDS011;52016;51.228;-2.322;2023-02-22T14:18:12;2.75;;;1.20;;
65405;SDS011;52016;51.228;-2.322;2023-02-22T14:21:58;3.50;;;1.95;;
65405;SDS011;52016;51.228;-2.322;2023-02-22T14:25:43;5.18;;;2.45;;
65405;SDS011;52016;51.228;-2.322;2023-02-22T14:29:25;5.57;;;3.28;;
65405;SDS011;52016;51.228;-2.322;2023-02-22T14:33:48;2.35;;;0.70;;
65405;SDS011;52016;51.228;-2.322;2023-02-22T14:37:29;3.53;;;1.40;;
65405;SDS011;52016;51.228;-2.322;2023-02-22T14:41:16;2.50;;;1.48;;
65405;SDS011;52016;51.228;-2.322;2023-02-22T14:45:00;4.70;;;1.60;;
65405;SDS011;52016;51.228;-2.322;2023-02-22T14:48:55;2.70;;;1.00;;
65405;SDS011;52016;51.228;-2.322;2023-02-22T14:52:41;5.22;;;0.70;;
65405;SDS011;52016;51.228;-2.322;2023-02-22T14:56:27;1.13;;;0.70;;
65405;SDS011;52016;51.228;-2.322;2023-02-22T15:00:22;2.08;;;0.90;;
65405;SDS011;52016;51.228;-2.322;2023-02-22T15:04:23;1.00;;;0.88;;
65405;SDS011;52016;51.228;-2.322;2023-02-22T15:08:11;3.92;;;1.10;;
65405;SDS011;52016;51.228;-2.322;2023-02-22T15:19:30;2.28;;;0.73;;
65405;SDS011;52016;51.228;-2.322;2023-02-22T15:23:16;3.10;;;1.10;;
65405;SDS011;52016;51.228;-2.322;2023-02-22T15:27:31;16.73;;;2.08;;
65405;SDS011;52016;51.228;-2.322;2023-02-22T15:35:29;0.80;;;0.80;;
65405;SDS011;52016;51.228;-2.322;2023-02-22T15:39:19;7.78;;;2.47;;
65405;SDS011;52016;51.228;-2.322;2023-02-22T15:43:22;4.95;;;2.70;;
65405;SDS011;52016;51.228;-2.322;2023-02-22T15:47:14;1.67;;;0.98;;
65405;SDS011;52016;51.228;-2.322;2023-02-22T15:51:06;1.67;;;0.63;;
65405;SDS011;52016;51.228;-2.322;2023-02-22T15:54:50;0.93;;;0.93;;
65405;SDS011;52016;51.228;-2.322;2023-02-22T15:58:32;3.17;;;2.45;;
65405;SDS011;52016;51.228;-2.322;2023-02-22T16:02:18;1.20;;;0.95;;
65405;SDS011;52016;51.228;-2.322;2023-02-22T16:06:30;1.20;;;1.10;;
65405;SDS011;52016;51.228;-2.322;2023-02-22T16:10:27;4.88;;;1.92;;
65405;SDS011;52016;51.228;-2.322;2023-02-22T16:18:28;2.80;;;1.70;;
65405;SDS011;52016;51.228;-2.322;2023-02-22T16:22:28;4.32;;;2.53;;
65405;SDS011;52016;51.228;-2.322;2023-02-22T16:30:24;4.75;;;1.58;;
65405;SDS011;52016;51.228;-2.322;2023-02-22T16:34:15;3.83;;;1.60;;
65405;SDS011;52016;51.228;-2.322;2023-02-22T16:38:01;2.88;;;1.60;;
65405;SDS011;52016;51.228;-2.322;2023-02-22T16:41:44;3.10;;;1.70;;
65405;SDS011;52016;51.228;-2.322;2023-02-22T16:45:26;4.35;;;1.50;;
65405;SDS011;52016;51.228;-2.322;2023-02-22T16:49:09;2.42;;;1.20;;
65405;SDS011;52016;51.228;-2.322;2023-02-22T16:52:52;2.42;;;1.27;;
65405;SDS011;52016;51.228;-2.322;2023-02-22T16:56:38;5.97;;;2.05;;
65405;SDS011;52016;51.228;-2.322;2023-02-22T17:00:21;2.60;;;1.83;;
65405;SDS011;52016;51.228;-2.322;2023-02-22T17:04:15;3.30;;;1.58;;
65405;SDS011;52016;51.228;-2.322;2023-02-22T17:08:01;3.40;;;2.55;;
65405;SDS011;52016;51.228;-2.322;2023-02-22T17:11:45;3.50;;;1.25;;
65405;SDS011;52016;51.228;-2.322;2023-02-22T17:15:30;1.60;;;1.10;;
65405;SDS011;52016;51.228;-2.322;2023-02-22T17:19:15;3.17;;;1.35;;
65405;SDS011;52016;51.228;-2.322;2023-02-22T17:23:03;2.90;;;1.58;;
65405;SDS011;52016;51.228;-2.322;2023-02-22T17:26:48;2.05;;;1.17;;
65405;SDS011;52016;51.228;-2.322;2023-02-22T17:30:33;1.50;;;1.40;;
65405;SDS011;52016;51.228;-2.322;2023-02-22T17:34:16;4.43;;;1.60;;
65405;SDS011;52016;51.228;-2.322;2023-02-22T17:37:58;2.90;;;1.40;;
65405;SDS011;52016;51.228;-2.322;2023-02-22T17:41:41;2.42;;;1.73;;
65405;SDS011;52016;51.228;-2.322;2023-02-22T17:45:23;4.22;;;1.73;;
65405;SDS011;52016;51.228;-2.322;2023-02-22T17:49:05;3.17;;;2.88;;
65405;SDS011;52016;51.228;-2.322;2023-02-22T17:52:48;2.50;;;2.25;;
65405;SDS011;52016;51.228;-2.322;2023-02-22T17:56:31;3.30;;;3.00;;
65405;SDS011;52016;51.228;-2.322;2023-02-22T18:00:15;5.13;;;4.22;;
65405;SDS011;52016;51.228;-2.322;2023-02-22T18:04:03;4.72;;;4.00;;
65405;SDS011;52016;51.228;-2.322;2023-02-22T18:07:45;3.00;;;2.70;;
65405;SDS011;52016;51.228;-2.322;2023-02-22T18:11:27;4.63;;;3.25;;
65405;SDS011;52016;51.228;-2.322;2023-02-22T18:15:12;2.83;;;2.40;;
65405;SDS011;52016;51.228;-2.322;2023-02-22T18:18:57;5.63;;;3.38;;
65405;SDS011;52016;51.228;-2.322;2023-02-22T18:22:42;4.70;;;3.25;;
65405;SDS011;52016;51.228;-2.322;2023-02-22T18:26:24;4.95;;;3.60;;
65405;SDS011;52016;51.228;-2.322;2023-02-22T18:30:06;8.23;;;4.03;;
65405;SDS011;52016;51.228;-2.322;2023-02-22T18:33:50;6.32;;;3.75;;
65405;SDS011;52016;51.228;-2.322;2023-02-22T18:37:32;6.43;;;3.25;;
65405;SDS011;52016;51.228;-2.322;2023-02-22T18:41:15;5.53;;;3.17;;
65405;SDS011;52016;51.228;-2.322;2023-02-22T18:44:58;3.05;;;2.50;;
65405;SDS011;52016;51.228;-2.322;2023-02-22T18:48:43;2.28;;;1.60;;
65405;SDS011;52016;51.228;-2.322;2023-02-22T18:52:26;3.35;;;2.15;;
65405;SDS011;52016;51.228;-2.322;2023-02-22T18:56:11;3.70;;;2.50;;
65405;SDS011;52016;51.228;-2.322;2023-02-22T18:59:55;2.92;;;2.10;;
65405;SDS011;52016;51.228;-2.322;2023-02-22T19:03:37;3.22;;;2.10;;
65405;SDS011;52016;51.228;-2.322;2023-02-22T19:07:19;4.68;;;2.22;;
65405;SDS011;52016;51.228;-2.322;2023-02-22T19:11:03;3.28;;;2.17;;
65405;SDS011;52016;51.228;-2.322;2023-02-22T19:14:48;6.75;;;2.10;;
65405;SDS011;52016;51.228;-2.322;2023-02-22T19:18:30;3.13;;;2.10;;
65405;SDS011;52016;51.228;-2.322;2023-02-22T19:22:12;6.15;;;3.53;;
65405;SDS011;52016;51.228;-2.322;2023-02-22T19:25:55;3.90;;;2.25;;
65405;SDS011;52016;51.228;-2.322;2023-02-22T19:29:37;6.20;;;4.40;;
65405;SDS011;52016;51.228;-2.322;2023-02-22T19:33:22;3.15;;;2.53;;
65405;SDS011;52016;51.228;-2.322;2023-02-22T19:37:06;3.90;;;2.42;;
65405;SDS011;52016;51.228;-2.322;2023-02-22T19:40:48;3.15;;;2.42;;
65405;SDS011;52016;51.228;-2.322;2023-02-22T19:44:30;2.85;;;2.00;;
65405;SDS011;52016;51.228;-2.322;2023-02-22T19:48:13;4.03;;;2.78;;
65405;SDS011;52016;51.228;-2.322;2023-02-22T19:51:54;3.97;;;3.22;;
65405;SDS011;52016;51.228;-2.322;2023-02-22T19:55:38;5.07;;;3.13;;
65405;SDS011;52016;51.228;-2.322;2023-02-22T19:59:20;3.85;;;2.67;;
65405;SDS011;52016;51.228;-2.322;2023-02-22T20:03:03;4.15;;;2.80;;
65405;SDS011;52016;51.228;-2.322;2023-02-22T20:06:50;2.70;;;2.00;;
65405;SDS011;52016;51.228;-2.322;2023-02-22T20:10:39;4.10;;;2.55;;
65405;SDS011;52016;51.228;-2.322;2023-02-22T20:14:23;4.90;;;3.70;;
65405;SDS011;52016;51.228;-2.322;2023-02-22T20:18:06;4.28;;;3.22;;
65405;SDS011;52016;51.228;-2.322;2023-02-22T20:21:48;3.55;;;2.72;;
65405;SDS011;52016;51.228;-2.322;2023-02-22T20:25:30;3.28;;;2.97;;
65405;SDS011;52016;51.228;-2.322;2023-02-22T20:29:11;7.53;;;4.18;;
65405;SDS011;52016;51.228;-2.322;2023-02-22T20:32:54;5.07;;;3.35;;
65405;SDS011;52016;51.228;-2.322;2023-02-22T20:36:37;11.27;;;6.07;;
65405;SDS011;52016;51.228;-2.322;2023-02-22T20:40:20;7.57;;;4.20;;
65405;SDS011;52016;51.228;-2.322;2023-02-22T20:44:02;7.07;;;4.25;;
65405;SDS011;52016;51.228;-2.322;2023-02-22T20:47:47;7.03;;;3.35;;
65405;SDS011;52016;51.228;-2.322;2023-02-22T20:51:29;5.28;;;2.78;;
65405;SDS011;52016;51.228;-2.322;2023-02-22T20:55:10;3.92;;;3.17;;
65405;SDS011;52016;51.228;-2.322;2023-02-22T20:58:57;5.60;;;3.17;;
65405;SDS011;52016;51.228;-2.322;2023-02-22T21:02:41;5.75;;;3.45;;
65405;SDS011;52016;51.228;-2.322;2023-02-22T21:06:24;3.10;;;2.55;;
65405;SDS011;52016;51.228;-2.322;2023-02-22T21:10:06;3.83;;;2.97;;
65405;SDS011;52016;51.228;-2.322;2023-02-22T21:13:48;5.32;;;2.30;;
65405;SDS011;52016;51.228;-2.322;2023-02-22T21:17:30;6.55;;;3.00;;
65405;SDS011;52016;51.228;-2.322;2023-02-22T21:21:12;4.15;;;2.20;;
65405;SDS011;52016;51.228;-2.322;2023-02-22T21:24:55;3.92;;;2.08;;
65405;SDS011;52016;51.228;-2.322;2023-02-22T21:28:36;2.55;;;2.13;;
65405;SDS011;52016;51.228;-2.322;2023-02-22T21:32:33;4.00;;;2.08;;
65405;SDS011;52016;51.228;-2.322;2023-02-22T21:36:15;3.70;;;2.50;;
65405;SDS011;52016;51.228;-2.322;2023-02-22T21:39:58;4.53;;;2.35;;
65405;SDS011;52016;51.228;-2.322;2023-02-22T21:43:41;4.28;;;2.45;;
65405;SDS011;52016;51.228;-2.322;2023-02-22T21:47:23;4.65;;;2.33;;
65405;SDS011;52016;51.228;-2.322;2023-02-22T21:51:08;3.78;;;2.42;;
65405;SDS011;52016;51.228;-2.322;2023-02-22T21:54:55;4.65;;;2.58;;
65405;SDS011;52016;51.228;-2.322;2023-02-22T21:58:36;5.75;;;2.58;;
65405;SDS011;52016;51.228;-2.322;2023-02-22T22:02:19;7.60;;;3.63;;
65405;SDS011;52016;51.228;-2.322;2023-02-22T22:06:06;7.80;;;2.80;;
65405;SDS011;52016;51.228;-2.322;2023-02-22T22:09:51;3.33;;;2.05;;
65405;SDS011;52016;51.228;-2.322;2023-02-22T22:13:37;6.95;;;2.45;;
65405;SDS011;52016;51.228;-2.322;2023-02-22T22:17:20;6.60;;;3.00;;
65405;SDS011;52016;51.228;-2.322;2023-02-22T22:21:09;5.82;;;2.85;;
65405;SDS011;52016;51.228;-2.322;2023-02-22T22:24:56;5.20;;;3.30;;
65405;SDS011;52016;51.228;-2.322;2023-02-22T22:28:39;6.07;;;3.20;;
65405;SDS011;52016;51.228;-2.322;2023-02-22T22:32:23;3.33;;;2.78;;
65405;SDS011;52016;51.228;-2.322;2023-02-22T22:36:05;7.35;;;3.05;;
65405;SDS011;52016;51.228;-2.322;2023-02-22T22:39:49;7.22;;;2.95;;
65405;SDS011;52016;51.228;-2.322;2023-02-22T22:43:31;7.25;;;3.10;;
65405;SDS011;52016;51.228;-2.322;2023-02-22T22:47:13;6.05;;;3.30;;
65405;SDS011;52016;51.228;-2.322;2023-02-22T22:50:57;10.32;;;3.72;;
65405;SDS011;52016;51.228;-2.322;2023-02-22T22:54:42;5.18;;;3.13;;
65405;SDS011;52016;51.228;-2.322;2023-02-22T22:58:24;3.22;;;2.53;;
65405;SDS011;52016;51.228;-2.322;2023-02-22T23:02:06;6.95;;;2.75;;
65405;SDS011;52016;51.228;-2.322;2023-02-22T23:05:51;7.00;;;2.75;;
65405;SDS011;52016;51.228;-2.322;2023-02-22T23:09:32;7.25;;;3.08;;
65405;SDS011;52016;51.228;-2.322;2023-02-22T23:13:17;9.95;;;3.13;;
65405;SDS011;52016;51.228;-2.322;2023-02-22T23:17:01;7.28;;;3.00;;
65405;SDS011;52016;51.228;-2.322;2023-02-22T23:20:44;6.85;;;3.15;;
65405;SDS011;52016;51.228;-2.322;2023-02-22T23:24:26;5.47;;;2.88;;
65405;SDS011;52016;51.228;-2.322;2023-02-22T23:28:08;7.53;;;2.92;;
65405;SDS011;52016;51.228;-2.322;2023-02-22T23:31:54;7.75;;;2.85;;
65405;SDS011;52016;51.228;-2.322;2023-02-22T23:35:37;6.78;;;3.33;;
65405;SDS011;52016;51.228;-2.322;2023-02-22T23:39:19;5.97;;;3.20;;
65405;SDS011;52016;51.228;-2.322;2023-02-22T23:43:02;6.50;;;2.67;;
65405;SDS011;52016;51.228;-2.322;2023-02-22T23:46:46;7.03;;;3.00;;
65405;SDS011;52016;51.228;-2.322;2023-02-22T23:50:29;5.05;;;3.00;;
65405;SDS011;52016;51.228;-2.322;2023-02-22T23:54:13;4.20;;;2.83;;
65405;SDS011;52016;51.228;-2.322;2023-02-22T23:58:01;4.70;;;3.00;;
